Time;durP1;ratioP1;P1;durP2;ratioP2;P2;SDS_P1;SDS_P2;PMS_P1;PMS_P2;Temp;Humidity;BMP_temperature;BMP_pressure;BME280_temperature;BME280_humidity;BME280_pressure;Samples;Min_cycle;Max_cycle;Signal;HPM_P1;HPM_P2
2024/01/25 00:00:27;;;;;;;4.03;2.63;;;18.40;41.80;;;;;;5021538;28;20884;-69
2024/01/25 00:02:53;;;;;;;2.93;2.63;;;18.40;41.70;;;;;;5038921;28;20574;-67
2024/01/25 00:05:18;;;;;;;2.73;2.53;;;18.40;41.70;;;;;;5035099;28;20597;-70
2024/01/25 00:07:50;;;;;;;3.23;2.93;;;18.40;41.70;;;;;;5023652;28;20234;-68
2024/01/25 00:10:19;;;;;;;3.47;2.90;;;18.40;41.70;;;;;;5036263;28;20701;-67
2024/01/25 00:12:44;;;;;;;2.57;2.37;;;18.40;41.70;;;;;;5034687;28;20549;-67
2024/01/25 00:15:10;;;;;;;2.37;2.27;;;18.40;41.70;;;;;;5035678;28;20426;-67
2024/01/25 00:17:36;;;;;;;2.70;2.50;;;18.40;41.80;;;;;;5018063;28;20231;-69
2024/01/25 00:20:03;;;;;;;4.80;2.70;;;18.40;41.70;;;;;;5030342;28;20214;-68
2024/01/25 00:22:29;;;;;;;2.57;2.37;;;18.40;41.80;;;;;;5022193;28;20952;-68
2024/01/25 00:24:54;;;;;;;3.13;2.83;;;18.40;41.80;;;;;;5030946;28;20434;-67
2024/01/25 00:27:20;;;;;;;3.60;2.40;;;18.40;41.80;;;;;;5020238;28;20265;-68
2024/01/25 00:29:45;;;;;;;2.80;2.30;;;18.40;41.80;;;;;;5030311;28;20808;-68
2024/01/25 00:32:11;;;;;;;3.13;2.80;;;18.40;41.70;;;;;;5035532;28;20749;-68
2024/01/25 00:34:37;;;;;;;2.40;2.13;;;18.40;41.80;;;;;;5032256;28;20222;-68
2024/01/25 00:37:02;;;;;;;2.40;2.20;;;18.40;41.80;;;;;;5024874;28;20234;-67
2024/01/25 00:39:28;;;;;;;2.93;2.63;;;18.40;41.80;;;;;;5021070;28;20226;-68
2024/01/25 00:42:04;;;;;;;3.07;2.77;;;18.40;41.80;;;;;;5024234;28;20278;-68
2024/01/25 00:44:30;;;;;;;2.57;2.37;;;18.40;41.80;;;;;;5027351;28;20225;-68
2024/01/25 00:46:56;;;;;;;4.50;3.07;;;18.40;41.80;;;;;;5030569;28;20485;-67
2024/01/25 00:49:22;;;;;;;2.43;1.97;;;18.40;41.80;;;;;;5023935;28;20505;-68
2024/01/25 00:51:48;;;;;;;2.33;2.13;;;18.40;41.80;;;;;;5018257;28;20234;-69
2024/01/25 00:54:15;;;;;;;2.60;2.40;;;18.40;41.80;;;;;;5020203;28;21003;-69
2024/01/25 00:56:41;;;;;;;2.93;2.73;;;18.40;41.80;;;;;;5014627;28;20701;-67
2024/01/25 00:59:06;;;;;;;3.10;2.80;;;18.40;41.90;;;;;;5025487;28;20976;-69
2024/01/25 01:01:32;;;;;;;2.50;2.30;;;18.40;41.80;;;;;;5019975;28;20431;-70
2024/01/25 01:03:58;;;;;;;3.33;2.40;;;18.40;41.80;;;;;;5034126;28;20229;-67
2024/01/25 01:06:25;;;;;;;2.10;2.00;;;18.30;41.70;;;;;;5035543;28;20214;-68
2024/01/25 01:08:51;;;;;;;3.30;2.57;;;18.40;41.80;;;;;;5028171;28;20956;-67
2024/01/25 01:11:17;;;;;;;2.70;2.20;;;18.40;41.80;;;;;;5039415;28;20511;-67
2024/01/25 01:13:42;;;;;;;4.40;2.77;;;18.40;41.80;;;;;;5036817;28;21506;-67
2024/01/25 01:16:08;;;;;;;2.27;1.93;;;18.40;41.80;;;;;;5020558;28;20241;-68
2024/01/25 01:18:34;;;;;;;3.17;2.97;;;18.40;41.80;;;;;;5035284;28;20309;-68
2024/01/25 01:20:59;;;;;;;2.70;2.30;;;18.40;41.80;;;;;;5018924;28;20305;-67
2024/01/25 01:23:25;;;;;;;2.77;2.43;;;18.40;41.80;;;;;;5032541;28;20232;-70
2024/01/25 01:25:51;;;;;;;3.33;1.90;;;18.40;41.80;;;;;;5015568;28;20775;-68
2024/01/25 01:28:16;;;;;;;2.40;2.20;;;18.30;41.70;;;;;;5025122;28;20227;-67
2024/01/25 01:30:42;;;;;;;4.23;2.83;;;18.40;41.70;;;;;;5019098;28;20227;-69
2024/01/25 01:33:09;;;;;;;3.67;2.30;;;18.30;41.70;;;;;;5029465;28;20554;-69
2024/01/25 01:35:34;;;;;;;4.67;2.80;;;18.30;41.70;;;;;;5025543;28;20691;-69
2024/01/25 01:38:00;;;;;;;2.83;2.30;;;18.30;41.70;;;;;;5018729;28;20439;-69
2024/01/25 01:40:25;;;;;;;16.53;2.40;;;18.40;41.80;;;;;;5035258;28;20518;-68
2024/01/25 01:42:51;;;;;;;2.70;2.27;;;18.40;41.80;;;;;;5024379;28;20256;-69
2024/01/25 01:45:17;;;;;;;3.33;2.50;;;18.40;41.80;;;;;;5015997;28;20647;-69
2024/01/25 01:47:43;;;;;;;2.20;1.87;;;18.30;41.70;;;;;;5020160;28;20223;-69
2024/01/25 01:50:09;;;;;;;2.67;1.90;;;18.40;41.80;;;;;;5020730;28;20235;-69
2024/01/25 01:52:36;;;;;;;2.43;1.90;;;18.40;41.80;;;;;;5018313;28;20584;-68
2024/01/25 01:55:01;;;;;;;2.20;2.00;;;18.30;41.70;;;;;;5016115;28;20466;-69
2024/01/25 01:57:28;;;;;;;4.70;2.30;;;18.40;41.80;;;;;;5019153;28;20436;-68
2024/01/25 01:59:54;;;;;;;3.00;2.40;;;18.30;41.70;;;;;;5035524;28;20780;-68
2024/01/25 02:02:19;;;;;;;2.07;1.87;;;18.40;41.80;;;;;;5031804;28;20471;-68
2024/01/25 02:04:45;;;;;;;2.57;1.93;;;18.30;41.70;;;;;;5015858;28;20254;-68
2024/01/25 02:07:12;;;;;;;4.13;2.73;;;18.30;41.70;;;;;;5015934;28;20593;-68
2024/01/25 02:09:37;;;;;;;2.33;2.13;;;18.40;41.80;;;;;;5039823;28;20214;-68
2024/01/25 02:12:03;;;;;;;3.07;2.10;;;18.30;41.80;;;;;;5029260;28;20981;-68
2024/01/25 02:14:30;;;;;;;1.87;1.77;;;18.30;41.70;;;;;;5028757;28;20220;-70
2024/01/25 02:16:56;;;;;;;2.60;2.13;;;18.30;41.80;;;;;;5030155;28;20260;-68
2024/01/25 02:19:21;;;;;;;2.93;1.93;;;18.30;41.70;;;;;;5030775;28;20472;-68
2024/01/25 02:21:48;;;;;;;4.10;2.33;;;18.30;41.70;;;;;;5025284;28;20305;-67
2024/01/25 02:24:13;;;;;;;2.43;2.10;;;18.30;41.70;;;;;;5031814;28;20226;-67
2024/01/25 02:26:39;;;;;;;2.53;1.90;;;18.30;41.70;;;;;;5026999;28;20422;-67
2024/01/25 02:29:07;;;;;;;3.23;2.30;;;18.30;41.80;;;;;;5022155;28;20292;-69
2024/01/25 02:31:32;;;;;;;2.40;1.83;;;18.30;41.70;;;;;;5021740;28;20453;-68
2024/01/25 02:33:58;;;;;;;2.80;1.90;;;18.30;41.70;;;;;;5015830;28;20447;-67
2024/01/25 02:36:23;;;;;;;7.70;2.07;;;18.30;41.70;;;;;;5028081;28;20949;-69
2024/01/25 02:38:49;;;;;;;1.70;1.60;;;18.30;41.70;;;;;;5033190;28;20786;-68
2024/01/25 02:41:15;;;;;;;4.10;2.40;;;18.30;41.70;;;;;;5030288;28;20218;-70
2024/01/25 02:43:40;;;;;;;4.50;2.23;;;18.30;41.70;;;;;;5019802;28;20226;-70
2024/01/25 02:46:07;;;;;;;2.37;2.13;;;18.30;41.70;;;;;;5025191;28;20314;-70
2024/01/25 02:48:33;;;;;;;2.20;2.03;;;18.30;41.70;;;;;;5019917;28;20219;-70
2024/01/25 02:50:58;;;;;;;3.17;1.90;;;18.30;41.70;;;;;;5020822;28;20843;-69
2024/01/25 02:53:24;;;;;;;2.30;2.10;;;18.30;41.70;;;;;;5024937;28;20681;-70
2024/01/25 02:55:49;;;;;;;2.40;2.20;;;18.30;41.70;;;;;;5017207;28;20753;-69
2024/01/25 02:58:15;;;;;;;2.07;1.97;;;18.30;41.60;;;;;;5031774;28;20689;-70
2024/01/25 03:00:40;;;;;;;3.50;2.83;;;18.30;41.60;;;;;;5023010;28;20242;-71
2024/01/25 03:03:06;;;;;;;1.90;1.80;;;18.30;41.70;;;;;;5037315;28;20275;-73
2024/01/25 03:05:31;;;;;;;4.23;2.60;;;18.30;41.70;;;;;;5019917;28;20247;-72
2024/01/25 03:07:57;;;;;;;2.57;1.80;;;18.30;41.70;;;;;;5023353;28;20306;-72
2024/01/25 03:10:23;;;;;;;1.90;1.70;;;18.30;41.70;;;;;;5019690;28;20246;-74
2024/01/25 03:12:48;;;;;;;3.17;2.10;;;18.30;41.70;;;;;;5040593;28;20808;-73
2024/01/25 03:15:15;;;;;;;2.13;1.93;;;18.30;41.70;;;;;;5027588;28;20443;-73
2024/01/25 03:17:40;;;;;;;1.90;1.80;;;18.30;41.70;;;;;;5025970;28;20233;-73
2024/01/25 03:20:06;;;;;;;3.03;2.30;;;18.30;41.70;;;;;;5026528;28;20470;-72
2024/01/25 03:22:32;;;;;;;5.43;1.87;;;18.30;41.60;;;;;;5016938;28;20218;-72
2024/01/25 03:24:57;;;;;;;3.83;2.47;;;18.30;41.60;;;;;;5031363;28;21013;-73
2024/01/25 03:27:23;;;;;;;2.30;2.10;;;18.30;41.70;;;;;;5022379;28;20289;-73
2024/01/25 03:29:49;;;;;;;2.07;1.87;;;18.30;41.70;;;;;;5029770;28;20223;-70
2024/01/25 03:32:14;;;;;;;2.27;1.90;;;18.30;41.60;;;;;;5020534;28;20671;-67
2024/01/25 03:34:40;;;;;;;2.57;1.83;;;18.30;41.70;;;;;;5028645;28;20686;-69
2024/01/25 03:37:06;;;;;;;1.90;1.80;;;18.30;41.70;;;;;;5021653;28;20221;-67
2024/01/25 03:39:32;;;;;;;1.87;1.77;;;18.30;41.60;;;;;;5036871;28;20215;-69
2024/01/25 03:41:58;;;;;;;2.50;1.70;;;18.30;41.60;;;;;;5017827;28;20414;-68
2024/01/25 03:44:23;;;;;;;1.70;1.60;;;18.30;41.70;;;;;;5022341;28;20717;-68
2024/01/25 03:46:49;;;;;;;3.67;2.20;;;18.30;41.70;;;;;;5012692;28;20211;-67
2024/01/25 03:49:15;;;;;;;1.93;1.70;;;18.30;41.70;;;;;;5027664;28;20206;-67
2024/01/25 03:51:40;;;;;;;2.20;1.73;;;18.30;41.60;;;;;;5020069;28;20234;-70
2024/01/25 03:54:06;;;;;;;2.50;1.90;;;18.30;41.70;;;;;;5031162;28;20685;-69
2024/01/25 03:56:32;;;;;;;2.70;2.30;;;18.30;41.60;;;;;;5034864;28;20694;-69
2024/01/25 03:58:57;;;;;;;2.10;2.00;;;18.30;41.70;;;;;;5027017;28;20434;-69
2024/01/25 04:01:23;;;;;;;2.47;1.83;;;18.30;41.70;;;;;;5023438;28;20264;-69
2024/01/25 04:03:48;;;;;;;2.03;1.60;;;18.30;41.70;;;;;;5022919;28;20221;-69
2024/01/25 04:06:14;;;;;;;2.80;1.70;;;18.30;41.70;;;;;;5023189;28;20231;-69
2024/01/25 04:08:39;;;;;;;2.37;2.03;;;18.30;41.70;;;;;;5027725;28;20318;-70
2024/01/25 04:11:05;;;;;;;3.40;2.00;;;18.30;41.60;;;;;;5028043;28;20226;-69
2024/01/25 04:13:30;;;;;;;1.87;1.77;;;18.30;41.60;;;;;;5037427;28;20218;-69
2024/01/25 04:15:56;;;;;;;1.93;1.70;;;18.30;41.70;;;;;;5030070;28;20225;-69
2024/01/25 04:18:22;;;;;;;1.80;1.70;;;18.30;41.60;;;;;;5025941;28;20223;-69
2024/01/25 04:20:47;;;;;;;3.20;2.00;;;18.30;41.60;;;;;;5018017;28;20229;-69
2024/01/25 04:23:13;;;;;;;1.80;1.70;;;18.30;41.60;;;;;;5019527;28;20210;-69
2024/01/25 04:25:38;;;;;;;1.70;1.60;;;18.30;41.60;;;;;;5024062;28;20256;-69
2024/01/25 04:28:04;;;;;;;2.43;2.23;;;18.30;41.90;;;;;;5023507;28;20241;-69
2024/01/25 04:30:30;;;;;;;2.33;1.93;;;18.30;41.60;;;;;;5021094;28;20238;-69
2024/01/25 04:32:56;;;;;;;3.33;1.90;;;18.30;41.60;;;;;;5030266;28;20250;-69
2024/01/25 04:35:22;;;;;;;2.20;1.70;;;18.30;41.60;;;;;;5035918;28;20451;-69
2024/01/25 04:37:47;;;;;;;2.70;2.20;;;18.30;41.60;;;;;;5034363;28;20219;-69
2024/01/25 04:40:13;;;;;;;2.80;2.00;;;18.30;41.50;;;;;;5026995;28;20218;-69
2024/01/25 04:42:38;;;;;;;1.97;1.70;;;18.30;41.60;;;;;;5029389;28;20226;-69
2024/01/25 04:45:04;;;;;;;2.97;2.10;;;18.30;41.60;;;;;;5021802;28;20222;-69
2024/01/25 04:47:30;;;;;;;2.90;1.70;;;18.30;41.60;;;;;;5029076;28;20226;-69
2024/01/25 04:49:56;;;;;;;2.80;1.70;;;18.30;41.50;;;;;;5021197;28;21567;-69
2024/01/25 04:52:21;;;;;;;1.80;1.60;;;18.40;41.60;;;;;;5017347;28;20518;-69
2024/01/25 04:54:47;;;;;;;2.60;1.97;;;18.40;41.60;;;;;;5020398;28;20211;-69
2024/01/25 04:57:13;;;;;;;2.03;1.83;;;18.30;41.50;;;;;;5021282;28;20222;-69
2024/01/25 04:59:38;;;;;;;3.57;2.20;;;18.40;41.60;;;;;;5018490;28;20278;-69
2024/01/25 05:02:04;;;;;;;4.83;2.07;;;18.40;41.50;;;;;;5018603;28;20218;-67
2024/01/25 05:04:31;;;;;;;3.27;2.37;;;18.30;41.40;;;;;;5022627;28;20206;-67
2024/01/25 05:06:56;;;;;;;2.00;1.80;;;18.40;41.50;;;;;;5032417;28;20983;-69
2024/01/25 05:09:22;;;;;;;2.20;2.10;;;18.40;41.50;;;;;;5026349;28;20483;-68
2024/01/25 05:11:48;;;;;;;3.53;2.13;;;18.40;41.50;;;;;;5026862;28;20214;-68
2024/01/25 05:14:13;;;;;;;1.97;1.77;;;18.40;41.50;;;;;;5028087;28;20224;-67
2024/01/25 05:16:39;;;;;;;2.60;2.20;;;18.40;41.40;;;;;;5018973;28;20215;-68
2024/01/25 05:19:04;;;;;;;2.20;2.00;;;18.40;42.20;;;;;;5020411;28;20635;-68
2024/01/25 05:21:31;;;;;;;2.57;2.37;;;18.40;41.40;;;;;;5045343;28;20228;-70
2024/01/25 05:23:56;;;;;;;2.20;1.70;;;18.40;41.30;;;;;;5034222;28;20236;-69
2024/01/25 05:26:22;;;;;;;2.17;1.80;;;18.40;41.40;;;;;;5028324;28;21113;-72
2024/01/25 05:28:48;;;;;;;2.00;1.90;;;18.40;41.30;;;;;;4998040;28;1054428;-70
2024/01/25 05:31:14;;;;;;;1.90;1.67;;;18.40;41.30;;;;;;5027092;28;20687;-67
2024/01/25 05:33:39;;;;;;;3.23;1.90;;;18.40;41.30;;;;;;5020621;28;20445;-70
2024/01/25 05:36:05;;;;;;;2.60;1.83;;;18.40;41.30;;;;;;5021959;28;20227;-69
2024/01/25 05:38:32;;;;;;;2.57;2.03;;;18.40;41.30;;;;;;5020434;28;20218;-69
2024/01/25 05:40:57;;;;;;;1.87;1.70;;;18.40;41.30;;;;;;5033330;28;20426;-68
2024/01/25 05:43:23;;;;;;;3.00;1.90;;;18.40;41.20;;;;;;5039736;28;20443;-70
2024/01/25 05:45:49;;;;;;;3.60;1.93;;;18.40;41.20;;;;;;5033700;28;20222;-71
2024/01/25 05:48:15;;;;;;;2.17;1.77;;;18.40;41.20;;;;;;5019788;28;20225;-69
2024/01/25 05:50:40;;;;;;;2.53;2.00;;;18.40;41.20;;;;;;5019071;28;20693;-69
2024/01/25 05:53:06;;;;;;;1.70;1.60;;;18.40;41.20;;;;;;5019377;28;20444;-70
2024/01/25 05:55:31;;;;;;;3.03;2.27;;;18.40;41.30;;;;;;5012679;28;20252;-71
2024/01/25 05:57:57;;;;;;;1.70;1.60;;;18.40;41.30;;;;;;5015434;28;20230;-71
2024/01/25 06:00:23;;;;;;;2.37;1.80;;;18.40;41.20;;;;;;5020853;28;21052;-72
2024/01/25 06:02:48;;;;;;;2.10;1.90;;;18.40;41.20;;;;;;5032345;28;20222;-73
2024/01/25 06:05:14;;;;;;;2.20;1.90;;;18.40;41.20;;;;;;5014461;28;20964;-71
2024/01/25 06:07:40;;;;;;;2.10;1.80;;;18.40;41.20;;;;;;5025660;28;20241;-71
2024/01/25 06:10:07;;;;;;;2.53;2.33;;;18.40;41.20;;;;;;5024118;28;20225;-71
2024/01/25 06:12:32;;;;;;;2.17;2.03;;;18.40;41.20;;;;;;5021155;28;20438;-74
2024/01/25 06:14:58;;;;;;;2.00;1.80;;;18.40;41.20;;;;;;5020503;28;20406;-71
2024/01/25 06:17:24;;;;;;;2.13;1.93;;;18.40;41.20;;;;;;5021723;28;20225;-73
2024/01/25 06:19:49;;;;;;;2.30;2.10;;;18.40;41.20;;;;;;5028627;28;20704;-73
2024/01/25 06:22:16;;;;;;;2.70;2.10;;;18.40;41.20;;;;;;5023652;28;20301;-72
2024/01/25 06:24:42;;;;;;;2.67;2.43;;;18.40;41.20;;;;;;5023182;28;20685;-71
2024/01/25 06:27:09;;;;;;;3.07;2.00;;;18.40;41.20;;;;;;5047758;28;20467;-74
2024/01/25 06:29:35;;;;;;;2.00;1.90;;;18.40;41.20;;;;;;5016452;28;20801;-71
2024/01/25 06:32:01;;;;;;;2.37;1.90;;;18.40;41.10;;;;;;5020042;28;20437;-70
2024/01/25 06:34:26;;;;;;;2.40;2.20;;;18.40;41.20;;;;;;5020517;28;20241;-71
2024/01/25 06:36:52;;;;;;;2.53;2.33;;;18.40;41.20;;;;;;5026041;28;20704;-69
2024/01/25 06:39:17;;;;;;;2.73;2.40;;;18.40;41.20;;;;;;5016493;28;20218;-69
2024/01/25 06:41:43;;;;;;;4.07;2.50;;;18.50;41.30;;;;;;5022515;28;20218;-70
2024/01/25 06:44:09;;;;;;;3.13;2.80;;;18.40;41.20;;;;;;5024162;28;20245;-70
2024/01/25 06:46:35;;;;;;;3.07;2.77;;;18.40;41.20;;;;;;5025447;28;20234;-70
2024/01/25 06:49:00;;;;;;;4.10;3.50;;;18.50;41.30;;;;;;5039942;28;20971;-70
2024/01/25 06:51:26;;;;;;;3.00;2.80;;;18.40;41.60;;;;;;5031296;28;20694;-70
2024/01/25 06:53:51;;;;;;;4.50;3.80;;;18.50;41.30;;;;;;5022697;28;20230;-70
2024/01/25 06:56:17;;;;;;;4.07;3.67;;;18.40;41.20;;;;;;5026225;28;20241;-70
2024/01/25 06:58:42;;;;;;;4.60;3.03;;;18.40;41.20;;;;;;5030093;28;20221;-70
2024/01/25 07:01:08;;;;;;;4.03;3.40;;;18.40;41.20;;;;;;5033376;28;20230;-68
2024/01/25 07:03:34;;;;;;;4.20;3.40;;;18.50;41.30;;;;;;5036837;28;20225;-67
2024/01/25 07:05:59;;;;;;;3.83;3.43;;;18.40;41.20;;;;;;5034534;28;20457;-68
2024/01/25 07:08:25;;;;;;;3.30;3.10;;;18.50;41.30;;;;;;5035386;28;20668;-68
2024/01/25 07:10:51;;;;;;;4.33;3.90;;;18.40;41.20;;;;;;5014121;28;20234;-67
2024/01/25 07:13:17;;;;;;;3.10;2.90;;;18.50;41.30;;;;;;5029836;28;20332;-68
2024/01/25 07:15:42;;;;;;;3.27;3.03;;;18.50;41.30;;;;;;5035270;28;20594;-70
2024/01/25 07:18:08;;;;;;;5.63;3.23;;;18.40;41.20;;;;;;5027762;28;20242;-68
2024/01/25 07:20:34;;;;;;;4.57;3.17;;;18.50;41.30;;;;;;5022307;28;20227;-67
2024/01/25 07:22:59;;;;;;;5.03;3.53;;;18.50;41.30;;;;;;5026991;28;20755;-68
2024/01/25 07:25:25;;;;;;;3.70;3.40;;;18.50;41.40;;;;;;5021152;28;20234;-68
2024/01/25 07:27:51;;;;;;;3.30;3.07;;;18.50;41.30;;;;;;5019675;28;20733;-67
2024/01/25 07:30:16;;;;;;;3.27;3.07;;;18.50;41.30;;;;;;5021218;28;20756;-68
2024/01/25 07:32:42;;;;;;;4.13;3.73;;;18.50;41.30;;;;;;5018622;28;20207;-68
2024/01/25 07:35:11;;;;;;;5.40;3.73;;;18.50;41.30;;;;;;5021994;28;20678;-69
2024/01/25 07:37:37;;;;;;;3.43;3.10;;;18.40;41.20;;;;;;5017304;28;20706;-68
2024/01/25 07:40:03;;;;;;;4.97;3.53;;;18.50;41.30;;;;;;5024830;28;20451;-68
2024/01/25 07:42:29;;;;;;;3.40;3.20;;;18.50;41.30;;;;;;5028278;28;20226;-69
2024/01/25 07:44:55;;;;;;;4.20;3.10;;;18.50;41.50;;;;;;5028389;28;20429;-69
2024/01/25 07:47:20;;;;;;;4.10;3.43;;;18.50;41.30;;;;;;5036734;28;20299;-68
2024/01/25 07:49:46;;;;;;;4.93;3.37;;;18.50;41.30;;;;;;5016936;28;20211;-69
2024/01/25 07:52:11;;;;;;;4.13;3.40;;;18.50;41.30;;;;;;5020487;28;20230;-69
2024/01/25 07:54:37;;;;;;;3.67;3.33;;;18.40;41.20;;;;;;5025252;28;20230;-69
2024/01/25 07:57:02;;;;;;;3.80;3.50;;;18.50;41.30;;;;;;5021440;28;20851;-69
2024/01/25 07:59:28;;;;;;;3.73;3.43;;;18.50;41.30;;;;;;5035210;28;20230;-69
2024/01/25 08:01:54;;;;;;;3.07;2.80;;;18.40;41.20;;;;;;5035672;28;20218;-69
2024/01/25 08:04:19;;;;;;;3.53;3.07;;;18.50;41.30;;;;;;5034486;28;20672;-69
2024/01/25 08:06:45;;;;;;;4.53;3.30;;;18.40;41.20;;;;;;5031910;28;20214;-69
2024/01/25 08:09:10;;;;;;;4.60;3.70;;;18.50;41.20;;;;;;5032344;28;20674;-69
2024/01/25 08:11:36;;;;;;;3.90;3.50;;;18.40;41.10;;;;;;5026158;28;20268;-68
2024/01/25 08:14:03;;;;;;;2.83;2.63;;;18.50;41.30;;;;;;5039352;28;20234;-68
2024/01/25 08:16:29;;;;;;;3.43;3.13;;;18.50;41.30;;;;;;5032601;28;20590;-68
2024/01/25 08:18:54;;;;;;;3.97;3.17;;;18.50;41.30;;;;;;5052282;28;20447;-69
2024/01/25 08:21:20;;;;;;;3.10;2.90;;;18.50;41.30;;;;;;5017585;28;20578;-69
2024/01/25 08:23:45;;;;;;;4.87;3.07;;;18.50;41.30;;;;;;5020261;28;20219;-68
2024/01/25 08:26:12;;;;;;;3.10;2.80;;;18.50;41.30;;;;;;5034721;28;20639;-68
2024/01/25 08:28:41;;;;;;;5.30;3.20;;;18.40;41.20;;;;;;5028765;28;20325;-68
2024/01/25 08:31:07;;;;;;;5.60;3.07;;;18.50;41.30;;;;;;5031485;28;20493;-68
2024/01/25 08:33:33;;;;;;;3.37;3.07;;;18.50;41.30;;;;;;5038219;28;20438;-68
2024/01/25 08:35:58;;;;;;;3.70;3.50;;;18.50;41.30;;;;;;5021957;28;20279;-69
2024/01/25 08:38:24;;;;;;;3.30;3.00;;;18.40;41.30;;;;;;5033119;28;20591;-68
2024/01/25 08:40:49;;;;;;;2.90;2.70;;;18.40;41.20;;;;;;5025631;28;20632;-69
2024/01/25 08:43:15;;;;;;;4.37;3.43;;;18.50;41.30;;;;;;5041354;28;20214;-68
2024/01/25 08:45:41;;;;;;;3.10;2.90;;;18.50;41.30;;;;;;5027392;28;20231;-68
2024/01/25 08:48:08;;;;;;;4.30;3.43;;;18.40;41.20;;;;;;5023210;28;20231;-68
2024/01/25 08:50:35;;;;;;;3.07;2.43;;;18.50;41.30;;;;;;5056993;28;20731;-67
2024/01/25 08:53:01;;;;;;;2.90;2.70;;;18.50;41.30;;;;;;5024402;28;20842;-68
2024/01/25 08:55:26;;;;;;;4.60;3.30;;;18.50;41.30;;;;;;5032330;28;20435;-68
2024/01/25 08:57:52;;;;;;;3.47;3.10;;;18.40;41.20;;;;;;5040580;28;20272;-68
2024/01/25 09:00:18;;;;;;;2.83;2.63;;;18.40;41.20;;;;;;5017259;28;20306;-69
2024/01/25 09:02:43;;;;;;;2.83;2.50;;;18.50;41.30;;;;;;5033518;28;20229;-69
2024/01/25 09:05:09;;;;;;;3.40;3.10;;;18.40;41.20;;;;;;5024066;28;20501;-68
2024/01/25 09:07:35;;;;;;;3.17;2.40;;;18.40;41.20;;;;;;5023354;28;20589;-68
2024/01/25 09:10:01;;;;;;;5.60;3.13;;;18.40;41.20;;;;;;5020777;28;20353;-69
2024/01/25 09:12:26;;;;;;;2.60;2.40;;;18.40;41.20;;;;;;5036364;28;20433;-69
2024/01/25 09:14:52;;;;;;;4.47;2.80;;;18.40;41.20;;;;;;5030944;28;20213;-69
2024/01/25 09:17:21;;;;;;;2.43;2.23;;;18.40;41.20;;;;;;5026085;28;20215;-69
2024/01/25 09:19:49;;;;;;;4.23;3.53;;;18.40;41.30;;;;;;5022728;28;20269;-69
2024/01/25 09:22:17;;;;;;;3.20;2.80;;;18.40;41.20;;;;;;5031279;28;20458;-70
2024/01/25 09:24:43;;;;;;;2.67;2.20;;;18.40;41.20;;;;;;5025610;28;20427;-70
2024/01/25 09:27:09;;;;;;;3.20;2.90;;;18.40;41.20;;;;;;5018037;28;20835;-70
2024/01/25 09:29:34;;;;;;;3.47;2.57;;;18.40;41.20;;;;;;5032839;28;20455;-70
2024/01/25 09:32:00;;;;;;;2.10;2.00;;;18.40;41.20;;;;;;5024523;28;20242;-70
2024/01/25 09:34:26;;;;;;;3.40;3.10;;;18.40;41.20;;;;;;5018157;28;20231;-70
2024/01/25 09:36:51;;;;;;;3.13;2.83;;;18.40;41.20;;;;;;5020420;28;20241;-70
2024/01/25 09:39:17;;;;;;;4.23;3.50;;;18.40;41.20;;;;;;5024341;28;20452;-70
2024/01/25 09:41:43;;;;;;;4.30;2.63;;;18.40;41.20;;;;;;5019611;28;20254;-70
2024/01/25 09:44:09;;;;;;;6.37;2.73;;;18.40;41.20;;;;;;5028695;28;20982;-70
2024/01/25 09:46:35;;;;;;;4.50;2.50;;;18.40;41.20;;;;;;5026219;28;20268;-70
2024/01/25 09:49:01;;;;;;;2.93;2.63;;;18.40;41.20;;;;;;5022244;28;20596;-70
2024/01/25 09:51:37;;;;;;;3.13;2.70;;;18.40;41.20;;;;;;5020312;28;21115;-70
2024/01/25 09:54:04;;;;;;;2.77;2.57;;;18.40;41.30;;;;;;5016715;28;20445;-70
2024/01/25 09:56:32;;;;;;;2.50;2.30;;;18.40;41.20;;;;;;5018209;28;20946;-70
2024/01/25 09:58:58;;;;;;;2.77;2.57;;;18.40;41.20;;;;;;5026691;28;20441;-70
2024/01/25 10:01:24;;;;;;;4.23;2.77;;;18.40;41.20;;;;;;5018883;28;20442;-70
2024/01/25 10:03:50;;;;;;;2.93;2.73;;;18.40;41.20;;;;;;5024798;28;20552;-70
2024/01/25 10:06:17;;;;;;;2.20;2.00;;;18.40;41.20;;;;;;5018997;28;20329;-70
2024/01/25 10:08:43;;;;;;;4.00;2.60;;;18.40;41.20;;;;;;5024043;28;20222;-71
2024/01/25 10:11:11;;;;;;;2.30;2.10;;;18.40;41.20;;;;;;5020832;28;20477;-71
2024/01/25 10:13:48;;;;;;;3.17;2.63;;;18.40;41.20;;;;;;5034247;28;20431;-71
2024/01/25 10:16:14;;;;;;;2.20;2.00;;;18.40;41.20;;;;;;5020113;28;20492;-70
2024/01/25 10:18:42;;;;;;;2.80;2.47;;;18.40;41.20;;;;;;5038571;28;20438;-70
2024/01/25 10:21:09;;;;;;;3.70;2.80;;;18.40;41.20;;;;;;5015211;28;21255;-70
2024/01/25 10:23:35;;;;;;;3.03;2.83;;;18.40;41.20;;;;;;5022823;28;21197;-70
2024/01/25 10:26:01;;;;;;;2.30;2.17;;;18.40;41.20;;;;;;5026725;28;20442;-70
2024/01/25 10:28:28;;;;;;;2.20;2.00;;;18.40;41.20;;;;;;5013994;28;20321;-71
2024/01/25 10:30:57;;;;;;;3.27;2.20;;;18.40;41.30;;;;;;5014141;28;20535;-71
2024/01/25 10:33:25;;;;;;;2.43;2.23;;;18.40;41.20;;;;;;5022276;28;20853;-67
2024/01/25 10:36:01;;;;;;;2.20;2.00;;;18.40;41.20;;;;;;5013753;28;20485;-68
2024/01/25 10:38:31;;;;;;;2.50;2.30;;;18.40;41.20;;;;;;5021980;28;20446;-68
2024/01/25 10:41:01;;;;;;;2.73;2.23;;;18.40;41.20;;;;;;5017741;28;20431;-70
2024/01/25 10:43:27;;;;;;;2.57;2.37;;;18.40;41.30;;;;;;5018648;28;20796;-70
2024/01/25 10:45:55;;;;;;;3.87;2.43;;;18.40;41.30;;;;;;5026401;28;20554;-70
2024/01/25 10:48:21;;;;;;;2.30;2.07;;;18.40;41.20;;;;;;5035934;28;21061;-70
2024/01/25 10:50:48;;;;;;;2.80;2.60;;;18.40;41.20;;;;;;5031406;28;20474;-69
2024/01/25 10:53:15;;;;;;;2.30;2.10;;;18.40;41.20;;;;;;5029357;28;20976;-69
2024/01/25 10:55:41;;;;;;;2.20;2.00;;;18.40;41.20;;;;;;5016542;28;20496;-69
2024/01/25 10:58:08;;;;;;;2.77;2.57;;;18.40;41.20;;;;;;5032566;28;20459;-68
2024/01/25 11:00:35;;;;;;;2.40;2.20;;;18.40;41.20;;;;;;5035430;28;20468;-69
2024/01/25 11:03:01;;;;;;;3.00;2.70;;;18.40;42.00;;;;;;5032268;28;20431;-69
2024/01/25 11:05:27;;;;;;;3.03;2.07;;;18.40;41.20;;;;;;5020603;28;20858;-69
2024/01/25 11:07:52;;;;;;;2.43;2.23;;;18.40;41.20;;;;;;5017821;28;20451;-68
2024/01/25 11:10:22;;;;;;;2.80;2.60;;;18.40;41.20;;;;;;5015227;28;20234;-69
2024/01/25 11:12:59;;;;;;;2.40;2.20;;;18.40;41.20;;;;;;5026527;28;20219;-71
2024/01/25 11:15:33;;;;;;;2.70;2.23;;;18.40;41.20;;;;;;5014288;28;20455;-70
2024/01/25 11:18:00;;;;;;;2.30;2.10;;;18.40;41.20;;;;;;5023162;28;20425;-70
2024/01/25 11:20:28;;;;;;;3.53;2.50;;;18.40;41.20;;;;;;5020753;28;21601;-70
2024/01/25 11:22:59;;;;;;;2.20;2.00;;;18.40;41.10;;;;;;5023524;28;20510;-70
2024/01/25 11:25:36;;;;;;;2.80;2.60;;;18.40;41.20;;;;;;5029154;28;20545;-71
2024/01/25 11:28:04;;;;;;;6.40;2.47;;;18.40;41.20;;;;;;5022666;28;20451;-71
2024/01/25 11:30:33;;;;;;;2.70;2.50;;;18.40;41.20;;;;;;5022088;28;20439;-71
2024/01/25 11:32:59;;;;;;;3.03;2.30;;;18.40;41.10;;;;;;5031544;28;20426;-71
2024/01/25 11:35:25;;;;;;;2.33;2.13;;;18.40;41.10;;;;;;5029430;28;20431;-71
2024/01/25 11:37:51;;;;;;;3.00;2.23;;;18.40;41.20;;;;;;5053485;28;20246;-71
2024/01/25 11:40:18;;;;;;;2.60;2.40;;;18.40;41.20;;;;;;5025464;28;20234;-71
2024/01/25 11:42:45;;;;;;;2.77;2.57;;;18.40;41.10;;;;;;5020927;28;20466;-69
2024/01/25 11:45:11;;;;;;;2.43;2.23;;;18.40;41.10;;;;;;5019977;28;21044;-70
2024/01/25 11:47:38;;;;;;;2.70;2.50;;;18.40;41.20;;;;;;5030218;28;20439;-69
2024/01/25 11:50:05;;;;;;;2.33;2.20;;;18.40;41.10;;;;;;5022014;28;20962;-70
2024/01/25 11:52:34;;;;;;;2.57;2.33;;;18.40;41.10;;;;;;5029475;28;20427;-69
2024/01/25 11:55:09;;;;;;;2.90;2.60;;;18.40;41.10;;;;;;5061988;28;20430;-70
2024/01/25 11:57:41;;;;;;;2.60;2.40;;;18.40;41.10;;;;;;5016696;28;20521;-70
2024/01/25 12:00:09;;;;;;;2.00;1.80;;;18.40;41.10;;;;;;5024845;28;20964;-70
2024/01/25 12:02:38;;;;;;;2.57;2.37;;;18.40;41.10;;;;;;5059574;28;20463;-70
2024/01/25 12:05:05;;;;;;;2.00;1.90;;;18.40;41.10;;;;;;5026830;28;20966;-70
2024/01/25 12:07:31;;;;;;;2.80;2.43;;;18.40;41.10;;;;;;5016302;28;20426;-69
2024/01/25 12:09:58;;;;;;;2.77;2.30;;;18.40;41.10;;;;;;5048503;28;20422;-69
2024/01/25 12:12:24;;;;;;;2.60;2.40;;;18.40;41.10;;;;;;5048959;28;20455;-69
2024/01/25 12:14:52;;;;;;;2.87;2.60;;;18.40;41.20;;;;;;5028324;28;21025;-69
2024/01/25 12:17:17;;;;;;;2.33;2.13;;;18.40;41.10;;;;;;5020313;28;20225;-70
2024/01/25 12:19:43;;;;;;;2.53;2.33;;;18.40;41.10;;;;;;5026226;28;20484;-69
2024/01/25 12:22:08;;;;;;;3.27;2.63;;;18.40;41.10;;;;;;5022770;28;20279;-68
2024/01/25 12:24:35;;;;;;;4.03;3.70;;;18.40;41.10;;;;;;5022246;28;20234;-68
2024/01/25 12:27:00;;;;;;;3.53;3.23;;;18.40;41.10;;;;;;5021671;28;20222;-68
2024/01/25 12:29:26;;;;;;;3.87;3.20;;;18.40;41.10;;;;;;5025247;28;20493;-68
2024/01/25 12:31:51;;;;;;;3.30;3.10;;;18.40;41.10;;;;;;5025708;28;20231;-68
2024/01/25 12:34:17;;;;;;;2.87;2.67;;;18.40;41.10;;;;;;5028998;28;20694;-68
2024/01/25 12:36:43;;;;;;;2.77;2.57;;;18.40;41.10;;;;;;5034691;28;20238;-68
2024/01/25 12:39:08;;;;;;;3.53;3.23;;;18.40;41.10;;;;;;5028436;28;20226;-68